sensor_id;sensor_type;location;lat;lon;timestamp;pressure;altitude;pressure_sealevel;temperature;humidity
8318;BME280;4196;48.926;8.964;2023-07-09T00:00:57;99283.69;;;18.74;90.12
8318;BME280;4196;48.926;8.964;2023-07-09T00:03:45;99265.78;;;18.58;90.29
8318;BME280;4196;48.926;8.964;2023-07-09T00:06:32;99307.16;;;18.78;91.11
8318;BME280;4196;48.926;8.964;2023-07-09T00:09:21;99317.59;;;18.80;91.31
8318;BME280;4196;48.926;8.964;2023-07-09T00:12:13;99316.03;;;18.74;91.71
8318;BME280;4196;48.926;8.964;2023-07-09T00:14:59;99297.31;;;18.57;91.77
8318;BME280;4196;48.926;8.964;2023-07-09T00:17:46;99327.47;;;18.72;92.10
8318;BME280;4196;48.926;8.964;2023-07-09T00:20:32;99329.34;;;18.67;92.84
8318;BME280;4196;48.926;8.964;2023-07-09T00:23:19;99313.22;;;18.51;93.24
8318;BME280;4196;48.926;8.964;2023-07-09T00:26:10;99329.63;;;18.57;93.30
8318;BME280;4196;48.926;8.964;2023-07-09T00:29:00;99330.78;;;18.49;93.96
8318;BME280;4196;48.926;8.964;2023-07-09T00:31:46;99336.97;;;18.46;93.81
8318;BME280;4196;48.926;8.964;2023-07-09T00:34:33;99326.75;;;18.37;94.60
8318;BME280;4196;48.926;8.964;2023-07-09T00:37:21;99333.91;;;18.32;94.71
8318;BME280;4196;48.926;8.964;2023-07-09T00:40:17;99320.25;;;18.21;94.39
8318;BME280;4196;48.926;8.964;2023-07-09T00:43:12;99316.19;;;18.10;94.68
8318;BME280;4196;48.926;8.964;2023-07-09T00:49:07;99342.06;;;18.23;96.86
8318;BME280;4196;48.926;8.964;2023-07-09T00:51:56;99329.19;;;18.14;97.03
8318;BME280;4196;48.926;8.964;2023-07-09T00:54:48;99341.41;;;18.15;97.75
8318;BME280;4196;48.926;8.964;2023-07-09T00:57:38;99319.97;;;18.00;97.94
8318;BME280;4196;48.926;8.964;2023-07-09T01:00:35;99338.84;;;18.13;98.19
8318;BME280;4196;48.926;8.964;2023-07-09T01:03:47;99336.34;;;18.08;98.92
8318;BME280;4196;48.926;8.964;2023-07-09T01:06:37;99293.50;;;17.78;99.58
8318;BME280;4196;48.926;8.964;2023-07-09T01:09:26;99340.13;;;17.98;99.30
8318;BME280;4196;48.926;8.964;2023-07-09T01:12:17;99307.72;;;17.70;100.00
8318;BME280;4196;48.926;8.964;2023-07-09T01:15:06;99323.34;;;17.73;100.00
8318;BME280;4196;48.926;8.964;2023-07-09T01:17:53;99325.31;;;17.65;100.00
8318;BME280;4196;48.926;8.964;2023-07-09T01:20:41;99326.19;;;17.65;100.00
8318;BME280;4196;48.926;8.964;2023-07-09T01:23:28;99321.91;;;17.61;100.00
8318;BME280;4196;48.926;8.964;2023-07-09T01:26:21;99325.47;;;17.58;100.00
8318;BME280;4196;48.926;8.964;2023-07-09T01:29:10;99327.25;;;17.58;100.00
8318;BME280;4196;48.926;8.964;2023-07-09T01:31:58;99352.34;;;17.65;100.00
8318;BME280;4196;48.926;8.964;2023-07-09T01:34:46;99353.34;;;17.61;100.00
8318;BME280;4196;48.926;8.964;2023-07-09T01:37:36;99352.69;;;17.53;100.00
8318;BME280;4196;48.926;8.964;2023-07-09T01:40:25;99340.56;;;17.49;100.00
8318;BME280;4196;48.926;8.964;2023-07-09T01:43:19;99343.16;;;17.50;100.00
8318;BME280;4196;48.926;8.964;2023-07-09T01:46:07;99358.00;;;17.50;100.00
8318;BME280;4196;48.926;8.964;2023-07-09T01:48:54;99353.84;;;17.41;100.00
8318;BME280;4196;48.926;8.964;2023-07-09T01:51:40;99358.22;;;17.41;100.00
8318;BME280;4196;48.926;8.964;2023-07-09T01:54:31;99348.78;;;17.35;100.00
8318;BME280;4196;48.926;8.964;2023-07-09T01:57:22;99343.69;;;17.29;100.00
8318;BME280;4196;48.926;8.964;2023-07-09T02:00:15;99354.81;;;17.37;100.00
8318;BME280;4196;48.926;8.964;2023-07-09T02:03:03;99354.09;;;17.32;100.00
8318;BME280;4196;48.926;8.964;2023-07-09T02:05:52;99337.16;;;17.12;100.00
8318;BME280;4196;48.926;8.964;2023-07-09T02:08:41;99356.97;;;17.21;100.00
8318;BME280;4196;48.926;8.964;2023-07-09T02:11:27;99335.47;;;17.08;100.00
8318;BME280;4196;48.926;8.964;2023-07-09T02:14:13;99362.22;;;17.21;100.00
8318;BME280;4196;48.926;8.964;2023-07-09T02:17:02;99366.72;;;17.14;100.00
8318;BME280;4196;48.926;8.964;2023-07-09T02:19:49;99366.81;;;17.11;100.00
8318;BME280;4196;48.926;8.964;2023-07-09T02:22:37;99365.22;;;17.04;100.00
8318;BME280;4196;48.926;8.964;2023-07-09T02:25:23;99354.94;;;16.97;100.00
8318;BME280;4196;48.926;8.964;2023-07-09T02:28:10;99355.00;;;16.95;100.00
8318;BME280;4196;48.926;8.964;2023-07-09T02:30:56;99333.66;;;16.76;100.00
8318;BME280;4196;48.926;8.964;2023-07-09T02:33:44;99363.03;;;16.87;100.00
8318;BME280;4196;48.926;8.964;2023-07-09T02:36:30;99352.53;;;16.89;100.00
8318;BME280;4196;48.926;8.964;2023-07-09T02:39:17;99353.47;;;16.86;100.00
8318;BME280;4196;48.926;8.964;2023-07-09T02:42:04;99319.03;;;16.66;100.00
8318;BME280;4196;48.926;8.964;2023-07-09T02:44:51;99325.06;;;16.70;100.00
8318;BME280;4196;48.926;8.964;2023-07-09T02:47:38;99320.78;;;16.65;100.00
8318;BME280;4196;48.926;8.964;2023-07-09T02:50:25;99341.59;;;16.72;100.00
8318;BME280;4196;48.926;8.964;2023-07-09T02:53:12;99343.50;;;16.63;100.00
8318;BME280;4196;48.926;8.964;2023-07-09T02:55:58;99342.00;;;16.53;100.00
8318;BME280;4196;48.926;8.964;2023-07-09T02:58:45;99338.53;;;16.51;100.00
8318;BME280;4196;48.926;8.964;2023-07-09T03:01:31;99334.47;;;16.38;100.00
8318;BME280;4196;48.926;8.964;2023-07-09T03:04:21;99353.44;;;16.48;100.00
8318;BME280;4196;48.926;8.964;2023-07-09T03:07:07;99371.56;;;16.55;100.00
8318;BME280;4196;48.926;8.964;2023-07-09T03:09:54;99373.44;;;16.50;100.00
8318;BME280;4196;48.926;8.964;2023-07-09T03:12:40;99287.41;;;15.99;100.00
8318;BME280;4196;48.926;8.964;2023-07-09T03:15:27;99375.19;;;16.48;100.00
8318;BME280;4196;48.926;8.964;2023-07-09T03:18:14;99346.84;;;16.31;100.00
8318;BME280;4196;48.926;8.964;2023-07-09T03:21:00;99376.13;;;16.46;100.00
8318;BME280;4196;48.926;8.964;2023-07-09T03:23:46;99353.78;;;16.31;100.00
8318;BME280;4196;48.926;8.964;2023-07-09T03:26:33;99383.22;;;16.40;100.00
8318;BME280;4196;48.926;8.964;2023-07-09T03:29:20;99385.78;;;16.42;100.00
8318;BME280;4196;48.926;8.964;2023-07-09T03:32:07;99353.09;;;16.23;100.00
8318;BME280;4196;48.926;8.964;2023-07-09T03:34:54;99385.94;;;16.36;100.00
8318;BME280;4196;48.926;8.964;2023-07-09T03:37:40;99381.59;;;16.35;100.00
8318;BME280;4196;48.926;8.964;2023-07-09T03:40:27;99384.16;;;16.36;100.00
8318;BME280;4196;48.926;8.964;2023-07-09T03:43:13;99396.38;;;16.36;100.00
8318;BME280;4196;48.926;8.964;2023-07-09T03:45:59;99374.78;;;16.26;100.00
8318;BME280;4196;48.926;8.964;2023-07-09T03:48:47;99377.50;;;16.22;100.00
8318;BME280;4196;48.926;8.964;2023-07-09T03:51:33;99376.66;;;16.19;100.00
8318;BME280;4196;48.926;8.964;2023-07-09T03:54:20;99376.88;;;16.10;100.00
8318;BME280;4196;48.926;8.964;2023-07-09T03:57:06;99378.56;;;16.11;100.00
8318;BME280;4196;48.926;8.964;2023-07-09T03:59:54;99358.84;;;15.98;100.00
8318;BME280;4196;48.926;8.964;2023-07-09T04:02:41;99388.00;;;16.18;100.00
8318;BME280;4196;48.926;8.964;2023-07-09T04:05:29;99373.25;;;16.17;100.00
8318;BME280;4196;48.926;8.964;2023-07-09T04:08:16;99402.41;;;16.39;100.00
8318;BME280;4196;48.926;8.964;2023-07-09T04:11:03;99377.31;;;16.31;100.00
8318;BME280;4196;48.926;8.964;2023-07-09T04:13:49;99404.75;;;16.52;100.00
8318;BME280;4196;48.926;8.964;2023-07-09T04:16:36;99386.44;;;16.52;100.00
8318;BME280;4196;48.926;8.964;2023-07-09T04:19:22;99402.53;;;16.75;100.00
8318;BME280;4196;48.926;8.964;2023-07-09T04:22:11;99406.72;;;16.82;100.00
8318;BME280;4196;48.926;8.964;2023-07-09T04:24:58;99395.47;;;16.79;100.00
8318;BME280;4196;48.926;8.964;2023-07-09T04:27:45;99412.63;;;16.92;100.00
8318;BME280;4196;48.926;8.964;2023-07-09T04:30:31;99397.00;;;16.89;100.00
8318;BME280;4196;48.926;8.964;2023-07-09T04:33:19;99414.13;;;17.02;100.00
8318;BME280;4196;48.926;8.964;2023-07-09T04:36:07;99413.97;;;17.08;100.00
8318;BME280;4196;48.926;8.964;2023-07-09T04:38:55;99414.69;;;17.15;100.00
8318;BME280;4196;48.926;8.964;2023-07-09T04:41:41;99403.38;;;17.14;100.00
8318;BME280;4196;48.926;8.964;2023-07-09T04:44:28;99413.41;;;17.33;100.00
8318;BME280;4196;48.926;8.964;2023-07-09T04:47:15;99423.63;;;17.78;100.00
8318;BME280;4196;48.926;8.964;2023-07-09T04:50:02;99417.06;;;18.27;100.00
8318;BME280;4196;48.926;8.964;2023-07-09T04:52:49;99391.34;;;18.40;97.81
8318;BME280;4196;48.926;8.964;2023-07-09T04:55:36;99398.97;;;18.49;96.41
8318;BME280;4196;48.926;8.964;2023-07-09T04:58:22;99427.69;;;18.53;96.08
8318;BME280;4196;48.926;8.964;2023-07-09T05:01:09;99420.97;;;18.43;96.34
8318;BME280;4196;48.926;8.964;2023-07-09T05:03:56;99428.63;;;18.51;96.82
8318;BME280;4196;48.926;8.964;2023-07-09T05:06:42;99367.94;;;18.33;96.51
8318;BME280;4196;48.926;8.964;2023-07-09T05:09:28;99432.59;;;19.22;95.66
8318;BME280;4196;48.926;8.964;2023-07-09T05:12:15;99422.16;;;20.23;91.34
8318;BME280;4196;48.926;8.964;2023-07-09T05:15:02;99445.78;;;21.63;81.32
8318;BME280;4196;48.926;8.964;2023-07-09T05:17:48;99412.03;;;22.70;73.08
8318;BME280;4196;48.926;8.964;2023-07-09T05:20:35;99414.88;;;23.76;65.58
8318;BME280;4196;48.926;8.964;2023-07-09T05:23:24;99418.41;;;24.76;61.36
8318;BME280;4196;48.926;8.964;2023-07-09T05:26:11;99411.50;;;25.51;57.37
8318;BME280;4196;48.926;8.964;2023-07-09T05:28:57;99443.94;;;26.31;55.28
8318;BME280;4196;48.926;8.964;2023-07-09T05:31:44;99433.28;;;26.88;52.52
8318;BME280;4196;48.926;8.964;2023-07-09T05:34:31;99442.13;;;27.97;47.96
8318;BME280;4196;48.926;8.964;2023-07-09T05:37:18;99418.59;;;28.03;45.66
8318;BME280;4196;48.926;8.964;2023-07-09T05:40:06;99444.06;;;28.46;46.10
8318;BME280;4196;48.926;8.964;2023-07-09T05:42:52;99423.47;;;28.60;44.69
8318;BME280;4196;48.926;8.964;2023-07-09T05:45:39;99446.78;;;29.32;42.97
8318;BME280;4196;48.926;8.964;2023-07-09T05:48:25;99423.91;;;29.17;42.90
8318;BME280;4196;48.926;8.964;2023-07-09T05:51:12;99438.78;;;28.82;45.30
8318;BME280;4196;48.926;8.964;2023-07-09T05:53:58;99437.44;;;28.64;46.46
8318;BME280;4196;48.926;8.964;2023-07-09T05:56:45;99441.41;;;28.33;47.65
8318;BME280;4196;48.926;8.964;2023-07-09T05:59:31;99443.31;;;28.31;46.45
8318;BME280;4196;48.926;8.964;2023-07-09T06:02:21;99446.81;;;28.18;46.43
8318;BME280;4196;48.926;8.964;2023-07-09T06:05:08;99440.66;;;27.65;48.17
8318;BME280;4196;48.926;8.964;2023-07-09T06:07:58;99441.38;;;27.28;48.89
8318;BME280;4196;48.926;8.964;2023-07-09T06:10:57;99446.03;;;26.54;52.46
8318;BME280;4196;48.926;8.964;2023-07-09T06:13:43;99449.75;;;25.93;51.80
8318;BME280;4196;48.926;8.964;2023-07-09T06:16:30;99448.56;;;25.37;55.36
8318;BME280;4196;48.926;8.964;2023-07-09T06:19:17;99433.63;;;25.04;54.96
8318;BME280;4196;48.926;8.964;2023-07-09T06:22:03;99430.69;;;24.61;57.47
8318;BME280;4196;48.926;8.964;2023-07-09T06:24:50;99433.38;;;24.26;59.19
8318;BME280;4196;48.926;8.964;2023-07-09T06:27:36;99432.41;;;24.11;59.77
8318;BME280;4196;48.926;8.964;2023-07-09T06:30:22;99397.03;;;23.62;61.34
8318;BME280;4196;48.926;8.964;2023-07-09T06:33:10;99425.22;;;23.80;61.47
8318;BME280;4196;48.926;8.964;2023-07-09T06:36:00;99438.59;;;24.12;61.25
8318;BME280;4196;48.926;8.964;2023-07-09T06:38:48;99430.34;;;24.01;61.03
8318;BME280;4196;48.926;8.964;2023-07-09T06:41:35;99373.09;;;23.65;62.48
8318;BME280;4196;48.926;8.964;2023-07-09T06:44:45;99428.88;;;24.28;60.83
8318;BME280;4196;48.926;8.964;2023-07-09T06:47:32;99415.13;;;24.39;58.66
8318;BME280;4196;48.926;8.964;2023-07-09T06:50:18;99424.81;;;24.39;60.65
8318;BME280;4196;48.926;8.964;2023-07-09T06:53:05;99406.00;;;24.27;61.81
8318;BME280;4196;48.926;8.964;2023-07-09T06:55:52;99447.63;;;24.74;61.57
8318;BME280;4196;48.926;8.964;2023-07-09T06:58:42;99431.38;;;24.80;59.60
8318;BME280;4196;48.926;8.964;2023-07-09T07:01:28;99431.91;;;24.87;60.68
8318;BME280;4196;48.926;8.964;2023-07-09T07:04:15;99439.69;;;25.22;59.97
8318;BME280;4196;48.926;8.964;2023-07-09T07:07:02;99445.97;;;25.51;58.66
8318;BME280;4196;48.926;8.964;2023-07-09T07:09:49;99434.97;;;25.73;59.38
8318;BME280;4196;48.926;8.964;2023-07-09T07:12:47;99442.19;;;26.01;57.19
8318;BME280;4196;48.926;8.964;2023-07-09T07:15:37;99430.28;;;26.22;55.99
8318;BME280;4196;48.926;8.964;2023-07-09T07:18:24;99426.56;;;26.25;57.62
8318;BME280;4196;48.926;8.964;2023-07-09T07:21:10;99400.00;;;26.25;58.41
8318;BME280;4196;48.926;8.964;2023-07-09T07:23:57;99434.63;;;26.38;58.22
8318;BME280;4196;48.926;8.964;2023-07-09T07:26:43;99431.63;;;26.58;57.11
8318;BME280;4196;48.926;8.964;2023-07-09T07:29:30;99394.72;;;26.68;52.70
8318;BME280;4196;48.926;8.964;2023-07-09T07:32:17;99436.91;;;26.87;54.29
8318;BME280;4196;48.926;8.964;2023-07-09T07:35:04;99410.84;;;27.06;55.01
8318;BME280;4196;48.926;8.964;2023-07-09T07:37:50;99431.75;;;27.12;53.38
8318;BME280;4196;48.926;8.964;2023-07-09T07:40:37;99399.47;;;27.04;53.75
8318;BME280;4196;48.926;8.964;2023-07-09T07:43:23;99412.50;;;27.36;54.47
8318;BME280;4196;48.926;8.964;2023-07-09T07:46:10;99409.59;;;27.39;53.93
8318;BME280;4196;48.926;8.964;2023-07-09T07:48:56;99426.75;;;27.75;51.71
8318;BME280;4196;48.926;8.964;2023-07-09T07:51:43;99391.56;;;27.84;48.35
8318;BME280;4196;48.926;8.964;2023-07-09T07:54:30;99419.56;;;28.15;49.36
8318;BME280;4196;48.926;8.964;2023-07-09T07:57:21;99406.78;;;28.33;48.12
8318;BME280;4196;48.926;8.964;2023-07-09T08:00:08;99414.47;;;28.50;48.33
8318;BME280;4196;48.926;8.964;2023-07-09T08:02:58;99377.06;;;28.39;46.13
8318;BME280;4196;48.926;8.964;2023-07-09T08:05:49;99398.97;;;28.55;47.73
8318;BME280;4196;48.926;8.964;2023-07-09T08:08:35;99402.38;;;28.70;46.61
8318;BME280;4196;48.926;8.964;2023-07-09T08:11:22;99403.63;;;28.64;47.45
8318;BME280;4196;48.926;8.964;2023-07-09T08:14:09;99401.94;;;28.76;46.38
8318;BME280;4196;48.926;8.964;2023-07-09T08:16:56;99406.41;;;28.76;46.47
8318;BME280;4196;48.926;8.964;2023-07-09T08:19:48;99398.94;;;28.81;44.92
8318;BME280;4196;48.926;8.964;2023-07-09T08:22:34;99381.81;;;28.96;43.81
8318;BME280;4196;48.926;8.964;2023-07-09T08:25:23;99348.50;;;28.78;45.70
8318;BME280;4196;48.926;8.964;2023-07-09T08:28:09;99400.13;;;29.13;45.33
8318;BME280;4196;48.926;8.964;2023-07-09T08:30:56;99405.34;;;29.39;41.29
8318;BME280;4196;48.926;8.964;2023-07-09T08:33:44;99409.28;;;29.57;41.55
8318;BME280;4196;48.926;8.964;2023-07-09T08:36:30;99387.09;;;29.57;40.99
8318;BME280;4196;48.926;8.964;2023-07-09T08:39:17;99403.28;;;29.78;39.41
8318;BME280;4196;48.926;8.964;2023-07-09T08:42:11;99390.16;;;29.75;40.06
8318;BME280;4196;48.926;8.964;2023-07-09T08:45:09;99395.19;;;29.55;41.16
8318;BME280;4196;48.926;8.964;2023-07-09T08:48:29;99395.88;;;29.70;38.90
8318;BME280;4196;48.926;8.964;2023-07-09T08:51:24;99382.06;;;29.52;39.63
8318;BME280;4196;48.926;8.964;2023-07-09T08:54:17;99395.19;;;29.79;38.35
8318;BME280;4196;48.926;8.964;2023-07-09T08:57:22;99384.22;;;29.71;38.53
8318;BME280;4196;48.926;8.964;2023-07-09T09:00:14;99398.81;;;29.90;39.58
8318;BME280;4196;48.926;8.964;2023-07-09T09:05:51;99361.94;;;29.83;38.37
8318;BME280;4196;48.926;8.964;2023-07-09T09:08:41;99389.66;;;30.16;39.37
8318;BME280;4196;48.926;8.964;2023-07-09T09:11:49;99398.56;;;30.39;37.80
8318;BME280;4196;48.926;8.964;2023-07-09T09:14:44;99395.13;;;30.37;38.75
8318;BME280;4196;48.926;8.964;2023-07-09T09:17:34;99368.41;;;30.26;38.85
8318;BME280;4196;48.926;8.964;2023-07-09T09:20:23;99389.06;;;30.46;40.28
8318;BME280;4196;48.926;8.964;2023-07-09T09:23:13;99404.88;;;30.49;40.80
8318;BME280;4196;48.926;8.964;2023-07-09T09:26:01;99394.28;;;30.48;39.31
8318;BME280;4196;48.926;8.964;2023-07-09T09:29:00;99394.03;;;30.73;38.00
8318;BME280;4196;48.926;8.964;2023-07-09T09:31:50;99391.56;;;30.93;36.82
8318;BME280;4196;48.926;8.964;2023-07-09T09:34:38;99387.06;;;31.04;35.84
8318;BME280;4196;48.926;8.964;2023-07-09T09:37:30;99388.28;;;31.00;37.13
8318;BME280;4196;48.926;8.964;2023-07-09T09:40:19;99370.19;;;30.82;36.90
8318;BME280;4196;48.926;8.964;2023-07-09T09:43:15;99392.44;;;30.93;38.06
8318;BME280;4196;48.926;8.964;2023-07-09T09:46:06;99396.34;;;31.21;37.59
8318;BME280;4196;48.926;8.964;2023-07-09T09:48:55;99388.47;;;31.20;36.32
8318;BME280;4196;48.926;8.964;2023-07-09T09:51:44;99391.09;;;31.42;35.57
8318;BME280;4196;48.926;8.964;2023-07-09T09:54:31;99381.31;;;31.52;34.94
8318;BME280;4196;48.926;8.964;2023-07-09T09:57:23;99367.97;;;31.41;35.46
8318;BME280;4196;48.926;8.964;2023-07-09T10:00:14;99371.78;;;31.60;33.99
8318;BME280;4196;48.926;8.964;2023-07-09T10:03:03;99343.28;;;31.59;33.97
8318;BME280;4196;48.926;8.964;2023-07-09T10:05:59;99348.91;;;31.56;34.69
8318;BME280;4196;48.926;8.964;2023-07-09T10:08:59;99320.44;;;31.55;34.35
8318;BME280;4196;48.926;8.964;2023-07-09T10:12:01;99364.31;;;31.84;33.72
8318;BME280;4196;48.926;8.964;2023-07-09T10:18:03;99354.00;;;31.80;34.04
8318;BME280;4196;48.926;8.964;2023-07-09T10:21:06;99348.66;;;32.01;33.50
8318;BME280;4196;48.926;8.964;2023-07-09T10:27:09;99338.84;;;32.20;33.04
8318;BME280;4196;48.926;8.964;2023-07-09T10:33:13;99334.69;;;32.37;31.60
8318;BME280;4196;48.926;8.964;2023-07-09T10:36:17;99336.47;;;32.58;31.19
8318;BME280;4196;48.926;8.964;2023-07-09T10:39:10;99333.28;;;32.33;32.37
8318;BME280;4196;48.926;8.964;2023-07-09T10:42:00;99315.31;;;32.24;35.53
8318;BME280;4196;48.926;8.964;2023-07-09T10:44:53;99323.97;;;32.37;34.27
8318;BME280;4196;48.926;8.964;2023-07-09T10:47:44;99328.59;;;32.76;31.17
8318;BME280;4196;48.926;8.964;2023-07-09T10:50:36;99313.66;;;32.92;31.17
8318;BME280;4196;48.926;8.964;2023-07-09T10:53:33;99317.94;;;33.05;31.64
8318;BME280;4196;48.926;8.964;2023-07-09T10:56:26;99320.75;;;33.13;32.35
8318;BME280;4196;48.926;8.964;2023-07-09T10:59:18;99319.91;;;33.22;30.48
8318;BME280;4196;48.926;8.964;2023-07-09T11:02:29;99310.56;;;33.36;30.87
8318;BME280;4196;48.926;8.964;2023-07-09T11:05:16;99297.00;;;33.37;30.40
8318;BME280;4196;48.926;8.964;2023-07-09T11:08:09;99300.25;;;33.51;29.61
8318;BME280;4196;48.926;8.964;2023-07-09T11:11:00;99291.91;;;33.54;30.56
8318;BME280;4196;48.926;8.964;2023-07-09T11:13:57;99282.88;;;33.55;29.91
8318;BME280;4196;48.926;8.964;2023-07-09T11:16:47;99279.31;;;33.64;29.69
8318;BME280;4196;48.926;8.964;2023-07-09T11:19:41;99308.38;;;33.78;30.60
8318;BME280;4196;48.926;8.964;2023-07-09T11:22:37;99308.19;;;33.89;29.61
8318;BME280;4196;48.926;8.964;2023-07-09T11:25:40;99303.06;;;34.06;28.97
8318;BME280;4196;48.926;8.964;2023-07-09T11:28:34;99284.25;;;34.06;28.33
8318;BME280;4196;48.926;8.964;2023-07-09T11:31:44;99296.66;;;34.17;28.80
8318;BME280;4196;48.926;8.964;2023-07-09T11:34:32;99283.53;;;34.13;28.69
8318;BME280;4196;48.926;8.964;2023-07-09T11:37:25;99290.19;;;34.37;28.64
8318;BME280;4196;48.926;8.964;2023-07-09T11:40:12;99274.34;;;34.34;28.88
8318;BME280;4196;48.926;8.964;2023-07-09T11:42:59;99278.09;;;34.23;29.99
8318;BME280;4196;48.926;8.964;2023-07-09T11:45:46;99274.97;;;34.46;27.49
8318;BME280;4196;48.926;8.964;2023-07-09T11:48:33;99274.41;;;34.24;27.62
8318;BME280;4196;48.926;8.964;2023-07-09T11:51:25;99277.84;;;34.17;27.92
8318;BME280;4196;48.926;8.964;2023-07-09T11:54:15;99249.63;;;34.03;32.09
8318;BME280;4196;48.926;8.964;2023-07-09T11:57:11;99276.41;;;34.22;29.14
8318;BME280;4196;48.926;8.964;2023-07-09T11:59:59;99281.91;;;34.48;27.53
8318;BME280;4196;48.926;8.964;2023-07-09T12:02:57;99283.97;;;34.36;27.62
8318;BME280;4196;48.926;8.964;2023-07-09T12:05:50;99241.13;;;34.07;27.18
8318;BME280;4196;48.926;8.964;2023-07-09T12:08:38;99269.28;;;34.31;27.31
8318;BME280;4196;48.926;8.964;2023-07-09T12:11:29;99269.81;;;34.34;26.79
8318;BME280;4196;48.926;8.964;2023-07-09T12:14:19;99242.38;;;34.31;25.52
8318;BME280;4196;48.926;8.964;2023-07-09T12:17:08;99248.75;;;34.57;26.45
8318;BME280;4196;48.926;8.964;2023-07-09T12:19:55;99261.28;;;34.84;27.38
8318;BME280;4196;48.926;8.964;2023-07-09T12:22:41;99257.44;;;35.05;25.88
8318;BME280;4196;48.926;8.964;2023-07-09T12:25:30;99261.59;;;35.17;25.22
8318;BME280;4196;48.926;8.964;2023-07-09T12:28:17;99259.34;;;35.13;24.98
8318;BME280;4196;48.926;8.964;2023-07-09T12:31:04;99241.31;;;35.05;25.57
8318;BME280;4196;48.926;8.964;2023-07-09T12:33:53;99245.22;;;35.11;26.58
8318;BME280;4196;48.926;8.964;2023-07-09T12:36:44;99233.19;;;35.23;27.18
8318;BME280;4196;48.926;8.964;2023-07-09T12:39:33;99207.00;;;35.33;27.97
8318;BME280;4196;48.926;8.964;2023-07-09T12:42:32;99229.00;;;35.72;27.09
8318;BME280;4196;48.926;8.964;2023-07-09T12:45:20;99198.59;;;35.54;22.84
8318;BME280;4196;48.926;8.964;2023-07-09T12:48:10;99225.56;;;35.36;24.13
8318;BME280;4196;48.926;8.964;2023-07-09T12:50:59;99205.69;;;35.37;24.23
8318;BME280;4196;48.926;8.964;2023-07-09T12:53:46;99192.19;;;35.29;24.02
8318;BME280;4196;48.926;8.964;2023-07-09T12:56:34;99202.47;;;35.33;26.73
8318;BME280;4196;48.926;8.964;2023-07-09T12:59:37;99210.50;;;35.25;24.22
8318;BME280;4196;48.926;8.964;2023-07-09T13:02:26;99200.41;;;35.27;24.10
8318;BME280;4196;48.926;8.964;2023-07-09T13:05:24;99172.44;;;35.20;24.15
8318;BME280;4196;48.926;8.964;2023-07-09T13:08:13;99196.78;;;35.37;23.76
8318;BME280;4196;48.926;8.964;2023-07-09T13:11:00;99201.00;;;35.39;23.96
8318;BME280;4196;48.926;8.964;2023-07-09T13:13:59;99193.44;;;35.43;26.09
8318;BME280;4196;48.926;8.964;2023-07-09T13:16:46;99173.38;;;35.37;23.49
8318;BME280;4196;48.926;8.964;2023-07-09T13:19:33;99162.25;;;35.32;23.34
8318;BME280;4196;48.926;8.964;2023-07-09T13:22:19;99124.94;;;35.11;25.37
8318;BME280;4196;48.926;8.964;2023-07-09T13:25:08;99176.50;;;35.50;26.43
8318;BME280;4196;48.926;8.964;2023-07-09T13:27:55;99169.31;;;35.59;25.08
8318;BME280;4196;48.926;8.964;2023-07-09T13:30:41;99172.41;;;35.72;26.17
8318;BME280;4196;48.926;8.964;2023-07-09T13:33:28;99175.47;;;35.86;25.28
8318;BME280;4196;48.926;8.964;2023-07-09T13:36:15;99139.56;;;35.77;26.15
8318;BME280;4196;48.926;8.964;2023-07-09T13:39:01;99152.41;;;35.83;23.85
8318;BME280;4196;48.926;8.964;2023-07-09T13:41:50;99173.22;;;36.15;23.24
8318;BME280;4196;48.926;8.964;2023-07-09T13:44:38;99150.66;;;36.16;21.89
8318;BME280;4196;48.926;8.964;2023-07-09T13:47:24;99118.88;;;35.94;22.03
8318;BME280;4196;48.926;8.964;2023-07-09T13:50:12;99166.16;;;36.06;22.06
8318;BME280;4196;48.926;8.964;2023-07-09T13:53:00;99160.38;;;36.01;22.00
8318;BME280;4196;48.926;8.964;2023-07-09T13:55:47;99154.94;;;35.93;21.60
8318;BME280;4196;48.926;8.964;2023-07-09T13:58:34;99161.28;;;35.75;22.58
8318;BME280;4196;48.926;8.964;2023-07-09T14:01:23;99134.06;;;35.87;22.36
8318;BME280;4196;48.926;8.964;2023-07-09T14:04:12;99163.47;;;36.14;22.44
8318;BME280;4196;48.926;8.964;2023-07-09T14:06:58;99133.03;;;35.88;24.18
8318;BME280;4196;48.926;8.964;2023-07-09T14:09:45;99163.44;;;36.06;22.09
8318;BME280;4196;48.926;8.964;2023-07-09T14:12:32;99144.38;;;35.99;23.54
8318;BME280;4196;48.926;8.964;2023-07-09T14:15:20;99146.31;;;36.23;22.07
8318;BME280;4196;48.926;8.964;2023-07-09T14:18:18;99140.91;;;36.40;22.63
8318;BME280;4196;48.926;8.964;2023-07-09T14:21:12;99111.56;;;36.37;21.53
8318;BME280;4196;48.926;8.964;2023-07-09T14:23:59;99137.91;;;36.67;19.52
8318;BME280;4196;48.926;8.964;2023-07-09T14:26:48;99134.88;;;36.62;22.19
8318;BME280;4196;48.926;8.964;2023-07-09T14:29:35;99129.13;;;36.49;21.87
8318;BME280;4196;48.926;8.964;2023-07-09T14:32:31;99107.53;;;36.16;21.27
8318;BME280;4196;48.926;8.964;2023-07-09T14:35:23;99126.38;;;36.08;23.09
8318;BME280;4196;48.926;8.964;2023-07-09T14:38:23;99091.94;;;35.86;22.57
8318;BME280;4196;48.926;8.964;2023-07-09T14:41:20;99119.81;;;36.02;22.74
8318;BME280;4196;48.926;8.964;2023-07-09T14:44:28;99109.13;;;35.85;19.84
8318;BME280;4196;48.926;8.964;2023-07-09T14:47:20;99090.16;;;36.02;20.47
8318;BME280;4196;48.926;8.964;2023-07-09T14:50:07;99120.06;;;36.50;18.77
8318;BME280;4196;48.926;8.964;2023-07-09T14:52:54;99104.53;;;36.52;20.33
8318;BME280;4196;48.926;8.964;2023-07-09T14:55:42;99095.06;;;36.40;19.96
8318;BME280;4196;48.926;8.964;2023-07-09T14:58:29;99110.91;;;36.43;21.32
8318;BME280;4196;48.926;8.964;2023-07-09T15:01:15;99079.03;;;36.22;20.26
8318;BME280;4196;48.926;8.964;2023-07-09T15:07:08;99102.31;;;36.39;23.78
8318;BME280;4196;48.926;8.964;2023-07-09T15:09:56;99088.66;;;36.41;25.36
8318;BME280;4196;48.926;8.964;2023-07-09T15:12:44;99075.50;;;36.13;24.64
8318;BME280;4196;48.926;8.964;2023-07-09T15:15:32;99104.50;;;36.27;22.78
8318;BME280;4196;48.926;8.964;2023-07-09T15:18:18;99107.19;;;36.36;22.89
8318;BME280;4196;48.926;8.964;2023-07-09T15:21:06;99104.84;;;36.33;22.78
8318;BME280;4196;48.926;8.964;2023-07-09T15:23:53;99088.47;;;36.18;23.86
8318;BME280;4196;48.926;8.964;2023-07-09T15:26:40;99108.19;;;36.10;21.78
8318;BME280;4196;48.926;8.964;2023-07-09T15:29:28;99062.41;;;35.60;19.77
8318;BME280;4196;48.926;8.964;2023-07-09T15:32:15;99083.03;;;35.43;21.94
8318;BME280;4196;48.926;8.964;2023-07-09T15:35:01;99078.59;;;35.33;23.24
8318;BME280;4196;48.926;8.964;2023-07-09T15:37:49;99100.13;;;35.33;25.04